sensor_id;sensor_type;location;lat;lon;timestamp;P1;durP1;ratioP1;P2;durP2;ratioP2
52434;SDS011;38354;52.892;6.148;2022-10-16T04:06:56;7.23;;;2.00;;
52434;SDS011;38354;52.892;6.148;2022-10-16T04:09:22;4.43;;;2.20;;
52434;SDS011;38354;52.892;6.148;2022-10-16T04:11:48;5.15;;;2.20;;
52434;SDS011;38354;52.892;6.148;2022-10-16T04:14:13;7.28;;;2.30;;
52434;SDS011;38354;52.892;6.148;2022-10-16T04:16:39;6.57;;;2.50;;
52434;SDS011;38354;52.892;6.148;2022-10-16T04:19:05;6.63;;;2.20;;
52434;SDS011;38354;52.892;6.148;2022-10-16T04:21:30;8.43;;;2.15;;
52434;SDS011;38354;52.892;6.148;2022-10-16T04:23:56;5.60;;;2.35;;
52434;SDS011;38354;52.892;6.148;2022-10-16T04:26:21;6.68;;;1.92;;
52434;SDS011;38354;52.892;6.148;2022-10-16T04:28:47;9.40;;;2.22;;
52434;SDS011;38354;52.892;6.148;2022-10-16T04:31:12;4.90;;;2.42;;
52434;SDS011;38354;52.892;6.148;2022-10-16T04:33:38;6.18;;;2.17;;
52434;SDS011;38354;52.892;6.148;2022-10-16T04:36:06;3.65;;;1.98;;
52434;SDS011;38354;52.892;6.148;2022-10-16T04:38:33;9.20;;;2.42;;
52434;SDS011;38354;52.892;6.148;2022-10-16T04:40:59;6.95;;;2.70;;
52434;SDS011;38354;52.892;6.148;2022-10-16T04:43:24;6.30;;;2.75;;
52434;SDS011;38354;52.892;6.148;2022-10-16T04:45:51;4.55;;;2.30;;
52434;SDS011;38354;52.892;6.148;2022-10-16T04:48:17;6.75;;;2.30;;
52434;SDS011;38354;52.892;6.148;2022-10-16T04:50:43;7.50;;;2.47;;
52434;SDS011;38354;52.892;6.148;2022-10-16T04:53:08;9.30;;;2.78;;
52434;SDS011;38354;52.892;6.148;2022-10-16T04:55:34;5.15;;;2.30;;
52434;SDS011;38354;52.892;6.148;2022-10-16T04:58:00;7.05;;;2.58;;
52434;SDS011;38354;52.892;6.148;2022-10-16T05:00:26;7.10;;;2.80;;
52434;SDS011;38354;52.892;6.148;2022-10-16T05:02:51;10.68;;;2.55;;
52434;SDS011;38354;52.892;6.148;2022-10-16T05:05:17;4.00;;;2.65;;
52434;SDS011;38354;52.892;6.148;2022-10-16T05:07:46;6.15;;;2.33;;
52434;SDS011;38354;52.892;6.148;2022-10-16T05:10:13;7.57;;;2.20;;
52434;SDS011;38354;52.892;6.148;2022-10-16T05:12:38;7.35;;;2.88;;
52434;SDS011;38354;52.892;6.148;2022-10-16T05:15:04;9.90;;;4.03;;
52434;SDS011;38354;52.892;6.148;2022-10-16T05:17:30;9.90;;;3.05;;
52434;SDS011;38354;52.892;6.148;2022-10-16T05:19:56;6.00;;;2.90;;
52434;SDS011;38354;52.892;6.148;2022-10-16T05:22:21;6.07;;;2.85;;
52434;SDS011;38354;52.892;6.148;2022-10-16T05:24:47;7.18;;;3.20;;
52434;SDS011;38354;52.892;6.148;2022-10-16T05:27:13;6.60;;;3.05;;
52434;SDS011;38354;52.892;6.148;2022-10-16T05:29:44;9.20;;;2.45;;
52434;SDS011;38354;52.892;6.148;2022-10-16T05:32:11;6.25;;;2.90;;
52434;SDS011;38354;52.892;6.148;2022-10-16T05:34:37;4.32;;;2.17;;
52434;SDS011;38354;52.892;6.148;2022-10-16T05:37:03;5.22;;;2.42;;
52434;SDS011;38354;52.892;6.148;2022-10-16T05:39:29;7.18;;;2.35;;
52434;SDS011;38354;52.892;6.148;2022-10-16T05:41:55;4.30;;;2.22;;
52434;SDS011;38354;52.892;6.148;2022-10-16T05:44:21;9.40;;;2.30;;
52434;SDS011;38354;52.892;6.148;2022-10-16T05:46:46;4.75;;;2.20;;
52434;SDS011;38354;52.892;6.148;2022-10-16T05:49:12;4.30;;;2.35;;
52434;SDS011;38354;52.892;6.148;2022-10-16T05:51:38;6.82;;;2.38;;
52434;SDS011;38354;52.892;6.148;2022-10-16T05:54:03;5.53;;;2.28;;
52434;SDS011;38354;52.892;6.148;2022-10-16T05:56:29;5.40;;;2.35;;
52434;SDS011;38354;52.892;6.148;2022-10-16T05:58:55;7.55;;;2.60;;
52434;SDS011;38354;52.892;6.148;2022-10-16T06:01:20;7.13;;;2.42;;
52434;SDS011;38354;52.892;6.148;2022-10-16T06:03:49;5.75;;;2.90;;
52434;SDS011;38354;52.892;6.148;2022-10-16T06:06:17;9.73;;;3.10;;
52434;SDS011;38354;52.892;6.148;2022-10-16T06:08:47;8.05;;;2.58;;
52434;SDS011;38354;52.892;6.148;2022-10-16T06:11:17;6.30;;;2.85;;
52434;SDS011;38354;52.892;6.148;2022-10-16T06:13:54;4.68;;;2.13;;
52434;SDS011;38354;52.892;6.148;2022-10-16T06:16:25;12.77;;;2.25;;
52434;SDS011;38354;52.892;6.148;2022-10-16T06:18:52;2.47;;;1.55;;
52434;SDS011;38354;52.892;6.148;2022-10-16T06:21:22;5.28;;;2.00;;
52434;SDS011;38354;52.892;6.148;2022-10-16T06:23:53;5.07;;;1.95;;
52434;SDS011;38354;52.892;6.148;2022-10-16T06:26:23;4.38;;;1.50;;
52434;SDS011;38354;52.892;6.148;2022-10-16T06:28:56;4.72;;;2.03;;
52434;SDS011;38354;52.892;6.148;2022-10-16T06:31:23;4.45;;;1.70;;
52434;SDS011;38354;52.892;6.148;2022-10-16T06:33:53;5.50;;;2.10;;
52434;SDS011;38354;52.892;6.148;2022-10-16T06:36:19;5.90;;;2.17;;
52434;SDS011;38354;52.892;6.148;2022-10-16T06:38:45;5.60;;;2.00;;
52434;SDS011;38354;52.892;6.148;2022-10-16T06:41:13;10.40;;;2.25;;
52434;SDS011;38354;52.892;6.148;2022-10-16T06:43:40;6.32;;;2.50;;
52434;SDS011;38354;52.892;6.148;2022-10-16T06:46:06;3.85;;;2.25;;
52434;SDS011;38354;52.892;6.148;2022-10-16T06:48:36;3.50;;;2.10;;
52434;SDS011;38354;52.892;6.148;2022-10-16T06:51:03;4.45;;;2.15;;
52434;SDS011;38354;52.892;6.148;2022-10-16T06:53:40;6.20;;;2.20;;
52434;SDS011;38354;52.892;6.148;2022-10-16T06:56:12;6.00;;;1.90;;
52434;SDS011;38354;52.892;6.148;2022-10-16T06:58:43;5.32;;;3.20;;
52434;SDS011;38354;52.892;6.148;2022-10-16T07:01:10;8.23;;;2.05;;
52434;SDS011;38354;52.892;6.148;2022-10-16T07:03:37;3.50;;;1.75;;
52434;SDS011;38354;52.892;6.148;2022-10-16T07:06:03;5.03;;;2.00;;
52434;SDS011;38354;52.892;6.148;2022-10-16T07:08:31;5.47;;;2.00;;
52434;SDS011;38354;52.892;6.148;2022-10-16T07:11:01;4.30;;;1.65;;
52434;SDS011;38354;52.892;6.148;2022-10-16T07:13:34;3.15;;;1.38;;
52434;SDS011;38354;52.892;6.148;2022-10-16T07:16:11;4.18;;;1.13;;
52434;SDS011;38354;52.892;6.148;2022-10-16T07:18:39;5.82;;;1.42;;
52434;SDS011;38354;52.892;6.148;2022-10-16T07:21:10;2.78;;;1.25;;
52434;SDS011;38354;52.892;6.148;2022-10-16T07:23:49;5.20;;;1.48;;
52434;SDS011;38354;52.892;6.148;2022-10-16T07:26:15;4.68;;;1.52;;
52434;SDS011;38354;52.892;6.148;2022-10-16T07:28:42;6.30;;;1.60;;
52434;SDS011;38354;52.892;6.148;2022-10-16T07:31:09;3.97;;;1.17;;
52434;SDS011;38354;52.892;6.148;2022-10-16T07:33:38;4.88;;;1.30;;
52434;SDS011;38354;52.892;6.148;2022-10-16T07:36:04;3.22;;;1.30;;
52434;SDS011;38354;52.892;6.148;2022-10-16T07:38:30;4.40;;;1.10;;
52434;SDS011;38354;52.892;6.148;2022-10-16T07:40:59;6.15;;;1.02;;
52434;SDS011;38354;52.892;6.148;2022-10-16T07:43:29;2.88;;;1.02;;
52434;SDS011;38354;52.892;6.148;2022-10-16T07:45:56;3.95;;;1.15;;
52434;SDS011;38354;52.892;6.148;2022-10-16T07:48:23;1.55;;;0.90;;
52434;SDS011;38354;52.892;6.148;2022-10-16T07:50:51;2.13;;;0.95;;
52434;SDS011;38354;52.892;6.148;2022-10-16T07:53:16;3.58;;;1.10;;
52434;SDS011;38354;52.892;6.148;2022-10-16T07:55:42;2.33;;;0.80;;
52434;SDS011;38354;52.892;6.148;2022-10-16T07:58:08;3.65;;;1.02;;
52434;SDS011;38354;52.892;6.148;2022-10-16T08:00:35;6.47;;;1.00;;
52434;SDS011;38354;52.892;6.148;2022-10-16T08:03:02;3.10;;;1.08;;
52434;SDS011;38354;52.892;6.148;2022-10-16T08:05:28;3.53;;;1.13;;
52434;SDS011;38354;52.892;6.148;2022-10-16T08:07:56;2.15;;;0.80;;
52434;SDS011;38354;52.892;6.148;2022-10-16T08:10:22;2.85;;;1.10;;
52434;SDS011;38354;52.892;6.148;2022-10-16T08:12:49;5.10;;;0.82;;
52434;SDS011;38354;52.892;6.148;2022-10-16T08:15:16;5.43;;;1.10;;
52434;SDS011;38354;52.892;6.148;2022-10-16T08:17:43;3.72;;;1.23;;
52434;SDS011;38354;52.892;6.148;2022-10-16T08:20:09;2.42;;;0.88;;
52434;SDS011;38354;52.892;6.148;2022-10-16T08:22:35;3.65;;;1.23;;
52434;SDS011;38354;52.892;6.148;2022-10-16T08:25:00;5.57;;;1.20;;
52434;SDS011;38354;52.892;6.148;2022-10-16T08:27:31;3.35;;;1.13;;
52434;SDS011;38354;52.892;6.148;2022-10-16T08:29:57;2.80;;;1.13;;
52434;SDS011;38354;52.892;6.148;2022-10-16T08:32:22;2.38;;;0.90;;
52434;SDS011;38354;52.892;6.148;2022-10-16T08:34:48;1.52;;;1.00;;
52434;SDS011;38354;52.892;6.148;2022-10-16T08:37:14;7.20;;;1.10;;
52434;SDS011;38354;52.892;6.148;2022-10-16T08:39:39;2.35;;;1.20;;
52434;SDS011;38354;52.892;6.148;2022-10-16T08:42:16;2.92;;;1.15;;
52434;SDS011;38354;52.892;6.148;2022-10-16T08:48:35;3.80;;;1.13;;
52434;SDS011;38354;52.892;6.148;2022-10-16T08:50:35;4.00;;;1.58;;
52434;SDS011;38354;52.892;6.148;2022-10-16T08:53:03;5.43;;;1.20;;
52434;SDS011;38354;52.892;6.148;2022-10-16T08:55:43;6.60;;;1.30;;
52434;SDS011;38354;52.892;6.148;2022-10-16T08:58:15;3.78;;;0.98;;
52434;SDS011;38354;52.892;6.148;2022-10-16T09:00:56;6.55;;;1.20;;
52434;SDS011;38354;52.892;6.148;2022-10-16T09:19:59;7.80;;;1.25;;
52434;SDS011;38354;52.892;6.148;2022-10-16T09:23:17;6.65;;;1.00;;
52434;SDS011;38354;52.892;6.148;2022-10-16T09:25:54;3.58;;;1.23;;
52434;SDS011;38354;52.892;6.148;2022-10-16T09:28:21;4.80;;;1.08;;
52434;SDS011;38354;52.892;6.148;2022-10-16T09:30:47;6.05;;;1.23;;
52434;SDS011;38354;52.892;6.148;2022-10-16T09:33:17;1.75;;;0.85;;
52434;SDS011;38354;52.892;6.148;2022-10-16T09:35:49;4.28;;;1.00;;
52434;SDS011;38354;52.892;6.148;2022-10-16T09:38:20;5.95;;;0.85;;
52434;SDS011;38354;52.892;6.148;2022-10-16T09:40:55;3.10;;;0.98;;
52434;SDS011;38354;52.892;6.148;2022-10-16T09:46:22;4.78;;;0.82;;
52434;SDS011;38354;52.892;6.148;2022-10-16T09:49:16;10.32;;;2.03;;
52434;SDS011;38354;52.892;6.148;2022-10-16T09:51:43;4.43;;;0.80;;
52434;SDS011;38354;52.892;6.148;2022-10-16T09:56:36;8.25;;;1.70;;
52434;SDS011;38354;52.892;6.148;2022-10-16T09:59:11;7.60;;;1.00;;
52434;SDS011;38354;52.892;6.148;2022-10-16T10:01:41;8.40;;;1.17;;
52434;SDS011;38354;52.892;6.148;2022-10-16T10:04:10;8.43;;;1.25;;
52434;SDS011;38354;52.892;6.148;2022-10-16T10:06:37;6.90;;;1.30;;
52434;SDS011;38354;52.892;6.148;2022-10-16T10:09:23;10.25;;;1.30;;
52434;SDS011;38354;52.892;6.148;2022-10-16T10:17:14;7.40;;;1.20;;
52434;SDS011;38354;52.892;6.148;2022-10-16T10:19:48;13.00;;;1.65;;
52434;SDS011;38354;52.892;6.148;2022-10-16T10:22:41;7.93;;;1.50;;
52434;SDS011;38354;52.892;6.148;2022-10-16T10:30:30;9.63;;;2.35;;
52434;SDS011;38354;52.892;6.148;2022-10-16T10:36:25;5.03;;;1.45;;
52434;SDS011;38354;52.892;6.148;2022-10-16T10:39:08;6.07;;;1.50;;
52434;SDS011;38354;52.892;6.148;2022-10-16T11:06:59;4.38;;;0.90;;
52434;SDS011;38354;52.892;6.148;2022-10-16T11:09:47;6.00;;;1.42;;
52434;SDS011;38354;52.892;6.148;2022-10-16T11:12:24;12.15;;;2.15;;
52434;SDS011;38354;52.892;6.148;2022-10-16T11:14:56;4.18;;;1.30;;
52434;SDS011;38354;52.892;6.148;2022-10-16T11:17:34;8.18;;;1.38;;
52434;SDS011;38354;52.892;6.148;2022-10-16T11:20:29;11.82;;;1.40;;
52434;SDS011;38354;52.892;6.148;2022-10-16T11:23:20;13.27;;;2.17;;
52434;SDS011;38354;52.892;6.148;2022-10-16T11:25:58;7.35;;;1.88;;
52434;SDS011;38354;52.892;6.148;2022-10-16T11:28:29;7.70;;;1.70;;
52434;SDS011;38354;52.892;6.148;2022-10-16T11:34:06;11.52;;;1.15;;
52434;SDS011;38354;52.892;6.148;2022-10-16T11:39:27;4.85;;;0.77;;
52434;SDS011;38354;52.892;6.148;2022-10-16T11:44:57;10.00;;;1.67;;
52434;SDS011;38354;52.892;6.148;2022-10-16T11:50:26;10.10;;;1.50;;
52434;SDS011;38354;52.892;6.148;2022-10-16T11:55:48;10.38;;;1.42;;
52434;SDS011;38354;52.892;6.148;2022-10-16T11:58:28;11.57;;;2.28;;
52434;SDS011;38354;52.892;6.148;2022-10-16T12:06:37;8.45;;;1.13;;
52434;SDS011;38354;52.892;6.148;2022-10-16T12:09:14;5.47;;;1.23;;
52434;SDS011;38354;52.892;6.148;2022-10-16T12:11:46;8.55;;;1.40;;
52434;SDS011;38354;52.892;6.148;2022-10-16T12:16:38;7.53;;;2.13;;
52434;SDS011;38354;52.892;6.148;2022-10-16T12:19:21;8.48;;;1.27;;
52434;SDS011;38354;52.892;6.148;2022-10-16T12:21:48;7.50;;;0.93;;
52434;SDS011;38354;52.892;6.148;2022-10-16T12:26:53;16.65;;;3.90;;
52434;SDS011;38354;52.892;6.148;2022-10-16T12:32:26;7.60;;;1.80;;
52434;SDS011;38354;52.892;6.148;2022-10-16T12:35:01;14.88;;;4.43;;
52434;SDS011;38354;52.892;6.148;2022-10-16T12:37:35;10.00;;;1.55;;
52434;SDS011;38354;52.892;6.148;2022-10-16T12:40:22;17.10;;;4.63;;
52434;SDS011;38354;52.892;6.148;2022-10-16T12:42:49;13.07;;;4.13;;
52434;SDS011;38354;52.892;6.148;2022-10-16T12:47:51;12.48;;;3.15;;
52434;SDS011;38354;52.892;6.148;2022-10-16T12:50:23;8.18;;;1.90;;
52434;SDS011;38354;52.892;6.148;2022-10-16T12:52:50;6.97;;;1.75;;
52434;SDS011;38354;52.892;6.148;2022-10-16T12:55:16;13.13;;;3.45;;
52434;SDS011;38354;52.892;6.148;2022-10-16T12:57:56;8.07;;;2.05;;
52434;SDS011;38354;52.892;6.148;2022-10-16T13:00:41;10.23;;;2.72;;
52434;SDS011;38354;52.892;6.148;2022-10-16T13:08:39;8.77;;;1.02;;
52434;SDS011;38354;52.892;6.148;2022-10-16T13:25:17;7.68;;;1.33;;
52434;SDS011;38354;52.892;6.148;2022-10-16T13:28:01;14.50;;;1.38;;
52434;SDS011;38354;52.892;6.148;2022-10-16T13:30:38;7.47;;;1.00;;
52434;SDS011;38354;52.892;6.148;2022-10-16T13:33:10;7.15;;;1.38;;
52434;SDS011;38354;52.892;6.148;2022-10-16T13:35:48;9.18;;;3.83;;
52434;SDS011;38354;52.892;6.148;2022-10-16T13:38:15;5.75;;;1.30;;
52434;SDS011;38354;52.892;6.148;2022-10-16T13:43:19;4.88;;;0.95;;
52434;SDS011;38354;52.892;6.148;2022-10-16T13:45:56;10.07;;;1.65;;
52434;SDS011;38354;52.892;6.148;2022-10-16T13:48:30;5.75;;;1.30;;
52434;SDS011;38354;52.892;6.148;2022-10-16T13:53:34;11.00;;;1.77;;
52434;SDS011;38354;52.892;6.148;2022-10-16T13:56:01;14.63;;;1.98;;
52434;SDS011;38354;52.892;6.148;2022-10-16T13:58:28;10.20;;;2.00;;
52434;SDS011;38354;52.892;6.148;2022-10-16T14:00:56;8.05;;;1.33;;
52434;SDS011;38354;52.892;6.148;2022-10-16T14:03:24;10.68;;;1.60;;
52434;SDS011;38354;52.892;6.148;2022-10-16T14:05:58;10.07;;;1.10;;
52434;SDS011;38354;52.892;6.148;2022-10-16T14:10:54;16.70;;;2.05;;
52434;SDS011;38354;52.892;6.148;2022-10-16T14:13:36;11.30;;;1.67;;
52434;SDS011;38354;52.892;6.148;2022-10-16T14:16:05;10.93;;;1.88;;
52434;SDS011;38354;52.892;6.148;2022-10-16T14:18:33;8.18;;;1.50;;
52434;SDS011;38354;52.892;6.148;2022-10-16T14:21:03;18.17;;;2.47;;
52434;SDS011;38354;52.892;6.148;2022-10-16T14:23:37;7.78;;;1.27;;
52434;SDS011;38354;52.892;6.148;2022-10-16T14:28:38;7.10;;;1.30;;
52434;SDS011;38354;52.892;6.148;2022-10-16T14:33:51;6.97;;;0.82;;
52434;SDS011;38354;52.892;6.148;2022-10-16T14:36:17;8.48;;;1.17;;
52434;SDS011;38354;52.892;6.148;2022-10-16T14:39:26;9.85;;;1.80;;
52434;SDS011;38354;52.892;6.148;2022-10-16T14:41:45;6.85;;;1.10;;
52434;SDS011;38354;52.892;6.148;2022-10-16T14:44:12;15.48;;;1.83;;
52434;SDS011;38354;52.892;6.148;2022-10-16T14:46:39;7.40;;;1.25;;
52434;SDS011;38354;52.892;6.148;2022-10-16T14:51:36;6.55;;;1.15;;
52434;SDS011;38354;52.892;6.148;2022-10-16T14:54:03;7.10;;;1.33;;
52434;SDS011;38354;52.892;6.148;2022-10-16T14:56:34;14.82;;;1.40;;
52434;SDS011;38354;52.892;6.148;2022-10-16T14:59:18;6.60;;;1.40;;
52434;SDS011;38354;52.892;6.148;2022-10-16T15:01:48;10.38;;;2.00;;
52434;SDS011;38354;52.892;6.148;2022-10-16T15:04:14;19.60;;;1.95;;
52434;SDS011;38354;52.892;6.148;2022-10-16T15:06:41;9.73;;;1.58;;
52434;SDS011;38354;52.892;6.148;2022-10-16T15:09:07;14.88;;;1.90;;
52434;SDS011;38354;52.892;6.148;2022-10-16T15:11:33;11.38;;;2.63;;
52434;SDS011;38354;52.892;6.148;2022-10-16T15:13:59;11.30;;;2.08;;
52434;SDS011;38354;52.892;6.148;2022-10-16T15:16:25;12.50;;;2.40;;
52434;SDS011;38354;52.892;6.148;2022-10-16T15:18:50;10.48;;;2.20;;
52434;SDS011;38354;52.892;6.148;2022-10-16T15:21:23;9.88;;;1.60;;
52434;SDS011;38354;52.892;6.148;2022-10-16T15:23:50;13.40;;;2.20;;
52434;SDS011;38354;52.892;6.148;2022-10-16T15:26:15;10.95;;;1.90;;
52434;SDS011;38354;52.892;6.148;2022-10-16T15:28:41;12.40;;;2.60;;
52434;SDS011;38354;52.892;6.148;2022-10-16T15:31:07;7.00;;;1.27;;
52434;SDS011;38354;52.892;6.148;2022-10-16T15:33:32;14.70;;;2.35;;
52434;SDS011;38354;52.892;6.148;2022-10-16T15:35:59;10.30;;;1.58;;
52434;SDS011;38354;52.892;6.148;2022-10-16T15:38:26;8.95;;;1.50;;
52434;SDS011;38354;52.892;6.148;2022-10-16T15:40:53;12.65;;;1.40;;
52434;SDS011;38354;52.892;6.148;2022-10-16T15:43:19;10.32;;;1.75;;
52434;SDS011;38354;52.892;6.148;2022-10-16T15:45:46;10.40;;;1.60;;
52434;SDS011;38354;52.892;6.148;2022-10-16T15:48:26;11.15;;;1.83;;
52434;SDS011;38354;52.892;6.148;2022-10-16T15:50:52;9.52;;;1.55;;
52434;SDS011;38354;52.892;6.148;2022-10-16T15:53:18;11.65;;;1.63;;
52434;SDS011;38354;52.892;6.148;2022-10-16T15:55:43;14.57;;;1.63;;
52434;SDS011;38354;52.892;6.148;2022-10-16T15:58:09;15.18;;;1.67;;
52434;SDS011;38354;52.892;6.148;2022-10-16T16:00:34;10.48;;;1.80;;
52434;SDS011;38354;52.892;6.148;2022-10-16T16:03:00;11.98;;;2.25;;
52434;SDS011;38354;52.892;6.148;2022-10-16T16:05:26;7.50;;;1.30;;
52434;SDS011;38354;52.892;6.148;2022-10-16T16:07:52;7.45;;;1.33;;
52434;SDS011;38354;52.892;6.148;2022-10-16T16:10:18;11.07;;;2.50;;
52434;SDS011;38354;52.892;6.148;2022-10-16T16:12:49;17.95;;;3.20;;
52434;SDS011;38354;52.892;6.148;2022-10-16T16:15:17;7.45;;;2.88;;
52434;SDS011;38354;52.892;6.148;2022-10-16T16:17:46;11.23;;;1.70;;
52434;SDS011;38354;52.892;6.148;2022-10-16T16:20:12;12.88;;;3.83;;
52434;SDS011;38354;52.892;6.148;2022-10-16T16:22:38;14.60;;;4.03;;
52434;SDS011;38354;52.892;6.148;2022-10-16T16:25:04;14.90;;;3.30;;
52434;SDS011;38354;52.892;6.148;2022-10-16T16:27:30;14.50;;;1.92;;
52434;SDS011;38354;52.892;6.148;2022-10-16T16:29:58;12.13;;;2.92;;
52434;SDS011;38354;52.892;6.148;2022-10-16T16:32:25;12.25;;;1.90;;
52434;SDS011;38354;52.892;6.148;2022-10-16T16:34:51;10.57;;;2.80;;
52434;SDS011;38354;52.892;6.148;2022-10-16T16:37:16;12.77;;;2.85;;
52434;SDS011;38354;52.892;6.148;2022-10-16T16:39:42;15.32;;;2.30;;
52434;SDS011;38354;52.892;6.148;2022-10-16T16:42:08;8.38;;;1.90;;
52434;SDS011;38354;52.892;6.148;2022-10-16T16:44:35;9.70;;;2.70;;
52434;SDS011;38354;52.892;6.148;2022-10-16T16:47:01;9.93;;;1.92;;
52434;SDS011;38354;52.892;6.148;2022-10-16T16:49:28;11.02;;;2.10;;
52434;SDS011;38354;52.892;6.148;2022-10-16T16:51:54;11.95;;;1.80;;
52434;SDS011;38354;52.892;6.148;2022-10-16T16:54:19;11.40;;;1.85;;
52434;SDS011;38354;52.892;6.148;2022-10-16T16:56:45;10.55;;;1.92;;
52434;SDS011;38354;52.892;6.148;2022-10-16T16:59:12;13.43;;;2.60;;
52434;SDS011;38354;52.892;6.148;2022-10-16T17:01:39;9.18;;;2.22;;
52434;SDS011;38354;52.892;6.148;2022-10-16T17:04:06;12.43;;;2.33;;
52434;SDS011;38354;52.892;6.148;2022-10-16T17:06:31;12.82;;;2.00;;
52434;SDS011;38354;52.892;6.148;2022-10-16T17:08:57;12.02;;;2.00;;
52434;SDS011;38354;52.892;6.148;2022-10-16T17:11:26;11.15;;;2.00;;
52434;SDS011;38354;52.892;6.148;2022-10-16T17:13:53;13.25;;;2.42;;
52434;SDS011;38354;52.892;6.148;2022-10-16T17:16:20;9.40;;;1.80;;
52434;SDS011;38354;52.892;6.148;2022-10-16T17:18:47;11.93;;;1.58;;
52434;SDS011;38354;52.892;6.148;2022-10-16T17:21:12;9.38;;;1.75;;
52434;SDS011;38354;52.892;6.148;2022-10-16T17:23:38;12.90;;;2.10;;
52434;SDS011;38354;52.892;6.148;2022-10-16T17:26:08;16.40;;;2.22;;
52434;SDS011;38354;52.892;6.148;2022-10-16T17:28:36;9.48;;;2.25;;
52434;SDS011;38354;52.892;6.148;2022-10-16T17:31:12;14.90;;;2.20;;
52434;SDS011;38354;52.892;6.148;2022-10-16T17:33:44;13.02;;;2.85;;
52434;SDS011;38354;52.892;6.148;2022-10-16T17:36:10;15.73;;;3.08;;
52434;SDS011;38354;52.892;6.148;2022-10-16T17:38:38;16.67;;;4.05;;
52434;SDS011;38354;52.892;6.148;2022-10-16T17:43:46;15.40;;;3.40;;
52434;SDS011;38354;52.892;6.148;2022-10-16T17:46:13;18.10;;;3.15;;
52434;SDS011;38354;52.892;6.148;2022-10-16T17:48:41;17.67;;;2.90;;
52434;SDS011;38354;52.892;6.148;2022-10-16T17:51:10;16.20;;;4.35;;
52434;SDS011;38354;52.892;6.148;2022-10-16T17:53:38;12.55;;;3.25;;
52434;SDS011;38354;52.892;6.148;2022-10-16T17:56:08;17.20;;;3.28;;
52434;SDS011;38354;52.892;6.148;2022-10-16T17:58:36;11.95;;;2.92;;
52434;SDS011;38354;52.892;6.148;2022-10-16T18:01:10;15.65;;;3.42;;
52434;SDS011;38354;52.892;6.148;2022-10-16T18:03:37;14.15;;;2.80;;
52434;SDS011;38354;52.892;6.148;2022-10-16T18:06:03;13.95;;;2.92;;
52434;SDS011;38354;52.892;6.148;2022-10-16T18:08:29;17.30;;;3.50;;
52434;SDS011;38354;52.892;6.148;2022-10-16T18:10:55;8.57;;;2.17;;
52434;SDS011;38354;52.892;6.148;2022-10-16T18:13:20;14.57;;;4.80;;
52434;SDS011;38354;52.892;6.148;2022-10-16T18:15:46;16.85;;;5.68;;
52434;SDS011;38354;52.892;6.148;2022-10-16T18:18:12;12.98;;;3.40;;
52434;SDS011;38354;52.892;6.148;2022-10-16T18:20:38;9.95;;;2.80;;
52434;SDS011;38354;52.892;6.148;2022-10-16T18:23:04;12.35;;;4.10;;
52434;SDS011;38354;52.892;6.148;2022-10-16T18:25:29;20.73;;;4.47;;
52434;SDS011;38354;52.892;6.148;2022-10-16T18:27:55;18.35;;;5.70;;
52434;SDS011;38354;52.892;6.148;2022-10-16T18:30:24;16.58;;;4.95;;
52434;SDS011;38354;52.892;6.148;2022-10-16T18:33:02;13.93;;;3.80;;
52434;SDS011;38354;52.892;6.148;2022-10-16T18:35:28;14.23;;;4.60;;
52434;SDS011;38354;52.892;6.148;2022-10-16T18:37:53;16.27;;;4.05;;
52434;SDS011;38354;52.892;6.148;2022-10-16T18:40:22;10.77;;;4.50;;
52434;SDS011;38354;52.892;6.148;2022-10-16T18:42:48;18.75;;;4.90;;
52434;SDS011;38354;52.892;6.148;2022-10-16T18:45:14;13.23;;;4.50;;
52434;SDS011;38354;52.892;6.148;2022-10-16T18:47:39;15.02;;;4.32;;
52434;SDS011;38354;52.892;6.148;2022-10-16T18:50:05;18.17;;;6.10;;
52434;SDS011;38354;52.892;6.148;2022-10-16T18:52:31;14.95;;;3.58;;
52434;SDS011;38354;52.892;6.148;2022-10-16T18:54:57;12.52;;;4.68;;
52434;SDS011;38354;52.892;6.148;2022-10-16T18:57:23;10.55;;;3.72;;
52434;SDS011;38354;52.892;6.148;2022-10-16T18:59:48;15.82;;;4.00;;
52434;SDS011;38354;52.892;6.148;2022-10-16T19:02:14;17.48;;;4.50;;
52434;SDS011;38354;52.892;6.148;2022-10-16T19:04:39;14.45;;;4.00;;
52434;SDS011;38354;52.892;6.148;2022-10-16T19:07:05;11.98;;;4.35;;
52434;SDS011;38354;52.892;6.148;2022-10-16T19:09:31;13.90;;;3.85;;
52434;SDS011;38354;52.892;6.148;2022-10-16T19:11:57;16.25;;;4.53;;
52434;SDS011;38354;52.892;6.148;2022-10-16T19:14:23;14.35;;;3.38;;
52434;SDS011;38354;52.892;6.148;2022-10-16T19:16:49;14.65;;;4.00;;
52434;SDS011;38354;52.892;6.148;2022-10-16T19:19:15;14.80;;;4.30;;
52434;SDS011;38354;52.892;6.148;2022-10-16T19:21:45;15.35;;;4.82;;
52434;SDS011;38354;52.892;6.148;2022-10-16T19:24:12;11.35;;;4.93;;
52434;SDS011;38354;52.892;6.148;2022-10-16T19:26:39;13.85;;;4.55;;
52434;SDS011;38354;52.892;6.148;2022-10-16T19:29:05;15.45;;;3.78;;
52434;SDS011;38354;52.892;6.148;2022-10-16T19:31:32;10.48;;;3.35;;
52434;SDS011;38354;52.892;6.148;2022-10-16T19:33:59;14.80;;;3.80;;
52434;SDS011;38354;52.892;6.148;2022-10-16T19:36:31;13.43;;;3.28;;
52434;SDS011;38354;52.892;6.148;2022-10-16T19:39:02;16.00;;;3.97;;
52434;SDS011;38354;52.892;6.148;2022-10-16T19:41:32;13.10;;;3.88;;
52434;SDS011;38354;52.892;6.148;2022-10-16T19:44:00;12.98;;;4.00;;
52434;SDS011;38354;52.892;6.148;2022-10-16T19:46:27;19.55;;;4.28;;
52434;SDS011;38354;52.892;6.148;2022-10-16T19:48:54;18.95;;;4.80;;
52434;SDS011;38354;52.892;6.148;2022-10-16T19:51:21;20.13;;;4.82;;
52434;SDS011;38354;52.892;6.148;2022-10-16T19:53:47;15.38;;;4.72;;
52434;SDS011;38354;52.892;6.148;2022-10-16T19:56:18;14.10;;;4.32;;
52434;SDS011;38354;52.892;6.148;2022-10-16T19:58:47;13.43;;;4.45;;
52434;SDS011;38354;52.892;6.148;2022-10-16T20:01:14;14.35;;;4.15;;
52434;SDS011;38354;52.892;6.148;2022-10-16T20:03:43;17.27;;;4.75;;
52434;SDS011;38354;52.892;6.148;2022-10-16T20:06:10;14.60;;;5.03;;
52434;SDS011;38354;52.892;6.148;2022-10-16T20:08:38;14.25;;;4.25;;
52434;SDS011;38354;52.892;6.148;2022-10-16T20:11:05;13.98;;;4.65;;
52434;SDS011;38354;52.892;6.148;2022-10-16T20:13:35;14.80;;;4.95;;
52434;SDS011;38354;52.892;6.148;2022-10-16T20:16:01;15.50;;;4.63;;
52434;SDS011;38354;52.892;6.148;2022-10-16T20:18:28;17.23;;;5.60;;
52434;SDS011;38354;52.892;6.148;2022-10-16T20:20:54;16.10;;;4.82;;
52434;SDS011;38354;52.892;6.148;2022-10-16T20:23:20;17.00;;;4.78;;
52434;SDS011;38354;52.892;6.148;2022-10-16T20:25:47;16.20;;;4.85;;
52434;SDS011;38354;52.892;6.148;2022-10-16T20:28:15;11.43;;;4.28;;
52434;SDS011;38354;52.892;6.148;2022-10-16T20:30:43;14.45;;;4.03;;
52434;SDS011;38354;52.892;6.148;2022-10-16T20:33:10;13.07;;;3.90;;
52434;SDS011;38354;52.892;6.148;2022-10-16T20:35:37;17.73;;;5.57;;
52434;SDS011;38354;52.892;6.148;2022-10-16T20:38:04;10.98;;;3.92;;
52434;SDS011;38354;52.892;6.148;2022-10-16T20:40:29;18.02;;;5.75;;
52434;SDS011;38354;52.892;6.148;2022-10-16T20:42:58;12.35;;;4.47;;
52434;SDS011;38354;52.892;6.148;2022-10-16T20:45:23;14.50;;;4.38;;
52434;SDS011;38354;52.892;6.148;2022-10-16T20:47:49;14.55;;;4.43;;
52434;SDS011;38354;52.892;6.148;2022-10-16T20:50:14;12.07;;;4.15;;
52434;SDS011;38354;52.892;6.148;2022-10-16T20:52:40;15.18;;;4.55;;
52434;SDS011;38354;52.892;6.148;2022-10-16T20:55:06;14.77;;;4.30;;
52434;SDS011;38354;52.892;6.148;2022-10-16T20:57:32;15.32;;;4.70;;
52434;SDS011;38354;52.892;6.148;2022-10-16T20:59:58;10.10;;;3.72;;
52434;SDS011;38354;52.892;6.148;2022-10-16T21:02:23;12.43;;;4.25;;
52434;SDS011;38354;52.892;6.148;2022-10-16T21:04:49;12.27;;;3.95;;
52434;SDS011;38354;52.892;6.148;2022-10-16T21:07:15;14.32;;;4.50;;
52434;SDS011;38354;52.892;6.148;2022-10-16T21:09:41;14.85;;;4.00;;